Aérodrome :
LOGIN :

S'inscrire | Disclaimer

   EN    FR    IT 

 










Légende :    VFR   VFR Marginal   IFR   IFR Intensif   IFR Très Intensif
Visi : 
Plafond : 
>= 8 km
>= 3000ft
5 à 8 km
1000 à 3000 ft
1500m à 5 km
500 à 1000 ft
800 à 1500m
200 à 500 ft
< 800m
< 200 ft
Symboles :   Orages  Brouillard  Fortes neiges  Fortes précipitations  Vent > 20 kt
SIGMETs :   Divers  Orages  Givrage  Turbulence  Onde Orograph.  Cendres Volcan.






- Altitude de l'aérodrome : 1585 ft
- Code IATA : SIR


LSGS - Sion

DERNIER METAR :
  • 150750Z 09005KT 040V120 9999 FEW080 01/00 Q1012

METARs EXPIRÉS :
  • 150720Z 07005KT 030V100 9999 SCT080 00/00 Q1012
  • 150650Z VRB02KT 9999 FEW080 00/00 Q1012
  • 150620Z AUTO VRB02KT 9999 NCD M00/M00 Q1012
  • 150550Z AUTO VRB03KT 9999 NCD 00/00 Q1011
  • 150520Z AUTO 12004KT 060V150 CAVOK 00/00 Q1011 REFZDZ

TAF TAF LSGS
Valide du 15 à 06h jusqu'au 15 à 15h UTC


150525Z 1506/1515 VRB03KT CAVOK



MET'MAP, la Météo Aéronautique d'un coup d'oeil ! - Copyright ORBIFLY Décembre 2007 - Disclaimer

ORBIFLY MET'MAP TEAM :

Programmation & Développement : Alexandra Zaïnal
Sur une idée originale de : Baudouin d'Aumeries
Assistance à la programmation : Marc-Olivier Méhu
Soutien technique & logistique : Manuel Goepfert

Contact : metmap@orbifly.com




SOURCES & CREDITS :

   NOAA